createdAt,value
2022-12-15T00:00:48.357Z,16.70
2022-12-15T00:03:47.565Z,16.10
2022-12-15T00:06:34.618Z,19.00
2022-12-15T00:09:25.166Z,17.20
2022-12-15T00:12:14.767Z,16.20
2022-12-15T00:15:01.672Z,16.70
2022-12-15T00:17:48.482Z,15.20
2022-12-15T00:20:36.113Z,14.40
2022-12-15T00:23:30.253Z,15.70
2022-12-15T00:26:18.306Z,15.90
2022-12-15T00:29:05.114Z,15.40
2022-12-15T00:31:52.124Z,16.10
2022-12-15T00:34:38.819Z,14.80
2022-12-15T00:37:25.672Z,18.10
2022-12-15T00:39:59.085Z,15.00
2022-12-15T00:42:28.902Z,15.70
2022-12-15T00:44:58.873Z,14.40
2022-12-15T00:47:26.993Z,13.90
2022-12-15T00:50:13.491Z,14.00
2022-12-15T00:53:00.298Z,13.00
2022-12-15T00:55:47.621Z,15.20
2022-12-15T00:58:34.534Z,15.50
2022-12-15T01:01:27.204Z,14.90
2022-12-15T01:04:14.960Z,14.90
2022-12-15T01:07:02.115Z,15.20
2022-12-15T01:09:49.244Z,16.10
2022-12-15T01:12:36.171Z,16.60
2022-12-15T01:15:23.547Z,15.20
2022-12-15T01:18:10.609Z,14.50
2022-12-15T01:20:38.579Z,14.80
2022-12-15T01:23:06.651Z,15.80
2022-12-15T01:25:34.659Z,14.60
2022-12-15T01:28:02.609Z,16.30
2022-12-15T01:30:30.867Z,15.40
2022-12-15T01:32:58.834Z,14.50
2022-12-15T01:35:27.844Z,16.00
2022-12-15T01:37:55.780Z,14.60
2022-12-15T01:40:43.020Z,14.60
2022-12-15T01:43:25.780Z,16.20
2022-12-15T01:46:06.307Z,16.00
2022-12-15T01:48:40.000Z,15.60
2022-12-15T01:51:20.057Z,15.50
2022-12-15T01:54:01.960Z,13.90
2022-12-15T01:56:38.743Z,16.30
2022-12-15T01:59:12.930Z,16.70
2022-12-15T02:01:41.608Z,15.20
2022-12-15T02:04:12.901Z,15.10
2022-12-15T02:06:41.052Z,17.00
2022-12-15T02:09:09.199Z,15.20
2022-12-15T02:11:45.215Z,16.40
2022-12-15T02:14:32.518Z,15.30
2022-12-15T02:17:49.879Z,13.90
2022-12-15T02:20:46.474Z,15.00
2022-12-15T02:23:42.416Z,15.40
2022-12-15T02:26:38.237Z,15.30
2022-12-15T02:29:40.673Z,15.30
2022-12-15T02:32:26.816Z,14.80
2022-12-15T02:35:06.521Z,13.90
2022-12-15T02:37:39.418Z,15.40
2022-12-15T02:40:10.658Z,15.40
2022-12-15T02:42:53.322Z,16.00
2022-12-15T02:45:56.341Z,16.00
2022-12-15T02:48:44.404Z,14.20
2022-12-15T02:51:21.605Z,15.10
2022-12-15T02:54:23.491Z,15.30
2022-12-15T02:57:25.750Z,14.80
2022-12-15T03:00:06.459Z,17.40
2022-12-15T03:02:38.885Z,16.30
2022-12-15T03:05:08.748Z,15.60
2022-12-15T03:07:36.969Z,14.20
2022-12-15T03:10:07.757Z,16.60
2022-12-15T03:12:35.696Z,16.20
2022-12-15T03:15:04.359Z,15.70
2022-12-15T03:17:32.739Z,15.80
2022-12-15T03:20:00.709Z,15.50
2022-12-15T03:22:28.882Z,14.60
2022-12-15T03:24:56.921Z,15.70
2022-12-15T03:27:24.822Z,15.50
2022-12-15T03:29:52.737Z,14.80
2022-12-15T03:32:20.919Z,14.80
2022-12-15T03:34:49.657Z,17.50
2022-12-15T03:37:17.738Z,14.80
2022-12-15T03:39:45.797Z,16.20
2022-12-15T03:42:13.966Z,14.60
2022-12-15T03:44:41.933Z,15.50
2022-12-15T03:47:09.804Z,16.80
2022-12-15T03:49:37.776Z,15.50
2022-12-15T03:52:05.975Z,16.70
2022-12-15T03:54:34.635Z,14.70
2022-12-15T03:57:02.636Z,14.90
2022-12-15T03:59:33.083Z,15.70
2022-12-15T04:02:01.196Z,14.80
2022-12-15T04:04:29.298Z,16.10
2022-12-15T04:06:57.195Z,14.80
2022-12-15T04:09:25.729Z,16.30
2022-12-15T04:11:53.697Z,15.30
2022-12-15T04:14:21.823Z,16.00
2022-12-15T04:16:49.729Z,16.70
2022-12-15T04:19:36.506Z,18.10
2022-12-15T04:22:04.929Z,15.50
2022-12-15T04:24:51.529Z,14.70
2022-12-15T04:27:38.511Z,16.90
2022-12-15T04:30:25.983Z,16.60
2022-12-15T04:33:13.757Z,17.90
2022-12-15T04:36:00.333Z,16.90
2022-12-15T04:38:50.442Z,16.00
2022-12-15T04:41:40.934Z,17.00
2022-12-15T04:44:30.878Z,16.40
2022-12-15T04:47:18.310Z,15.60
2022-12-15T04:50:05.288Z,15.90
2022-12-15T04:52:52.360Z,16.10
2022-12-15T04:55:39.775Z,16.30
2022-12-15T04:58:28.378Z,16.90
2022-12-15T05:01:18.371Z,17.00
2022-12-15T05:04:05.409Z,16.90
2022-12-15T05:06:52.360Z,16.30
2022-12-15T05:09:39.356Z,14.90
2022-12-15T05:12:25.946Z,15.20
2022-12-15T05:15:12.875Z,15.70
2022-12-15T05:18:00.638Z,14.30
2022-12-15T05:20:50.195Z,15.30
2022-12-15T05:23:37.302Z,15.70
2022-12-15T05:26:24.624Z,16.50
2022-12-15T05:29:11.538Z,15.10
2022-12-15T05:31:52.414Z,17.80
2022-12-15T05:34:28.874Z,16.40
2022-12-15T05:36:59.216Z,17.40
2022-12-15T05:39:28.305Z,16.40
2022-12-15T05:41:57.806Z,16.10
2022-12-15T05:44:27.004Z,17.10
2022-12-15T05:46:55.582Z,17.40
2022-12-15T05:49:25.040Z,18.40
2022-12-15T05:51:53.165Z,15.90
2022-12-15T05:54:21.153Z,16.90
2022-12-15T05:56:50.408Z,16.90
2022-12-15T05:59:19.885Z,16.00
2022-12-15T06:01:48.406Z,16.30
2022-12-15T06:04:16.836Z,18.10
2022-12-15T06:06:44.966Z,17.30
2022-12-15T06:09:12.943Z,16.90
2022-12-15T06:11:41.527Z,18.70
2022-12-15T06:14:09.921Z,17.90
2022-12-15T06:16:49.821Z,18.90
2022-12-15T06:19:20.416Z,18.40
2022-12-15T06:21:48.868Z,18.10
2022-12-15T06:24:17.139Z,19.10
2022-12-15T06:26:45.832Z,17.20
2022-12-15T06:29:15.638Z,18.60
2022-12-15T06:31:44.004Z,16.80
2022-12-15T06:34:15.110Z,17.60
2022-12-15T06:36:44.134Z,17.70
2022-12-15T06:39:15.608Z,17.50
2022-12-15T06:41:43.981Z,18.80
2022-12-15T06:44:17.376Z,17.70
2022-12-15T06:46:46.718Z,17.10
2022-12-15T06:49:14.986Z,18.60
2022-12-15T06:51:45.174Z,16.90
2022-12-15T06:54:13.462Z,17.00
2022-12-15T06:56:42.558Z,15.90
2022-12-15T06:59:12.953Z,18.30
2022-12-15T07:01:42.240Z,17.30
2022-12-15T07:04:11.524Z,17.80
2022-12-15T07:06:41.296Z,18.20
2022-12-15T07:09:16.243Z,18.40
2022-12-15T07:11:46.514Z,19.70
2022-12-15T07:14:14.423Z,20.70
2022-12-15T07:16:42.402Z,20.60
2022-12-15T07:19:14.289Z,20.10
2022-12-15T07:21:42.571Z,20.00
2022-12-15T07:24:14.083Z,20.90
2022-12-15T07:26:43.020Z,19.50
2022-12-15T07:29:12.132Z,19.70
2022-12-15T07:31:40.518Z,19.60
2022-12-15T07:34:09.148Z,19.40
2022-12-15T07:36:38.435Z,21.00
2022-12-15T07:39:06.711Z,22.80
2022-12-15T07:41:35.788Z,18.50
2022-12-15T07:44:03.978Z,18.50
2022-12-15T07:46:32.268Z,20.40
2022-12-15T07:49:00.864Z,19.30
2022-12-15T07:51:29.016Z,18.20
2022-12-15T07:53:57.388Z,18.20
2022-12-15T07:56:25.364Z,20.60
2022-12-15T07:58:54.057Z,21.30
2022-12-15T08:01:23.213Z,19.50
2022-12-15T08:03:51.998Z,21.40
2022-12-15T08:06:20.824Z,19.90
2022-12-15T08:08:50.648Z,18.70
2022-12-15T08:11:23.381Z,18.50
2022-12-15T08:14:10.517Z,19.60
2022-12-15T08:16:39.966Z,19.60
2022-12-15T08:19:13.123Z,22.10
2022-12-15T08:21:43.719Z,18.70
2022-12-15T08:24:14.205Z,19.40
2022-12-15T08:26:44.503Z,19.40
2022-12-15T08:29:49.626Z,19.90
2022-12-15T08:32:06.671Z,17.20
2022-12-15T08:34:35.701Z,17.70
2022-12-15T08:37:03.853Z,18.60
2022-12-15T08:39:32.014Z,19.20
2022-12-15T08:41:59.984Z,18.70
2022-12-15T08:44:27.950Z,18.20
2022-12-15T08:46:56.329Z,17.80
2022-12-15T08:49:24.403Z,19.50
2022-12-15T08:51:52.563Z,17.50
2022-12-15T08:54:21.300Z,18.10
2022-12-15T08:56:49.658Z,19.10
2022-12-15T08:59:19.534Z,19.50
2022-12-15T09:01:48.712Z,19.00
2022-12-15T09:04:17.644Z,20.80
2022-12-15T09:06:50.502Z,18.30
2022-12-15T09:09:20.329Z,17.40
2022-12-15T09:11:49.749Z,19.20
2022-12-15T09:14:22.784Z,18.30
2022-12-15T09:16:55.621Z,17.80
2022-12-15T09:19:25.444Z,17.10
2022-12-15T09:21:53.605Z,18.80
2022-12-15T09:24:32.155Z,17.30
2022-12-15T09:27:03.776Z,18.30
2022-12-15T09:29:34.092Z,18.00
2022-12-15T09:32:06.492Z,18.20
2022-12-15T09:34:37.617Z,18.70
2022-12-15T09:37:06.103Z,17.50
2022-12-15T09:39:34.192Z,18.00
2022-12-15T09:42:02.554Z,17.20
2022-12-15T09:44:33.168Z,18.90
2022-12-15T09:47:37.591Z,19.10
2022-12-15T09:50:12.612Z,17.10
2022-12-15T09:52:51.874Z,17.50
2022-12-15T09:55:36.025Z,16.30
2022-12-15T09:58:29.903Z,17.40
2022-12-15T10:01:35.927Z,17.30
2022-12-15T10:04:50.925Z,15.40
2022-12-15T10:07:22.395Z,19.10
2022-12-15T10:09:50.395Z,18.30
2022-12-15T10:12:31.846Z,18.40
2022-12-15T10:15:29.347Z,17.90
2022-12-15T10:18:21.696Z,17.40
2022-12-15T10:20:54.383Z,17.90
2022-12-15T10:23:22.809Z,16.30
2022-12-15T10:26:15.763Z,18.80
2022-12-15T10:29:21.017Z,17.50
2022-12-15T10:32:05.580Z,18.10
2022-12-15T10:34:39.177Z,17.90
2022-12-15T10:37:19.612Z,17.40
2022-12-15T10:39:51.247Z,17.30
2022-12-15T10:42:27.243Z,19.10
2022-12-15T10:44:58.564Z,17.60
2022-12-15T10:47:32.484Z,17.10
2022-12-15T10:50:25.568Z,18.70
2022-12-15T10:52:53.732Z,17.30
2022-12-15T10:55:38.334Z,18.10
2022-12-15T10:58:22.456Z,17.80
2022-12-15T11:01:18.108Z,17.30
2022-12-15T11:03:47.402Z,20.00
2022-12-15T11:06:26.718Z,17.80
2022-12-15T11:09:07.428Z,18.00
2022-12-15T11:12:06.353Z,17.70
2022-12-15T11:14:48.866Z,18.00
2022-12-15T11:17:23.500Z,17.30
2022-12-15T11:20:06.495Z,18.00
2022-12-15T11:22:43.103Z,18.90
2022-12-15T11:25:46.277Z,19.20
2022-12-15T11:28:23.582Z,16.50
2022-12-15T11:31:18.174Z,16.30
2022-12-15T11:33:46.743Z,17.30
2022-12-15T11:36:54.900Z,16.50
2022-12-15T11:39:50.917Z,19.60
2022-12-15T11:42:18.891Z,17.50
2022-12-15T11:44:53.567Z,18.80
2022-12-15T11:47:51.267Z,17.60
2022-12-15T11:50:48.055Z,16.30
2022-12-15T11:53:44.326Z,18.30
2022-12-15T11:56:37.327Z,18.20
2022-12-15T11:59:34.533Z,15.70
2022-12-15T12:02:47.802Z,16.00
2022-12-15T12:06:00.820Z,16.90
2022-12-15T12:09:12.074Z,16.30
2022-12-15T12:12:02.274Z,18.50
2022-12-15T12:14:56.071Z,17.20
2022-12-15T12:17:36.392Z,18.40
2022-12-15T12:20:19.935Z,18.10
2022-12-15T12:23:04.845Z,14.40
2022-12-15T12:25:43.553Z,14.90
2022-12-15T12:28:33.659Z,18.20
2022-12-15T12:31:05.805Z,16.50
2022-12-15T12:33:48.576Z,16.10
2022-12-15T12:36:17.015Z,16.40
2022-12-15T12:38:56.161Z,16.50
2022-12-15T12:41:45.363Z,17.40
2022-12-15T12:44:42.025Z,15.40
2022-12-15T12:47:31.387Z,16.00
2022-12-15T12:50:13.110Z,18.60
2022-12-15T12:52:52.105Z,17.20
2022-12-15T12:55:43.115Z,15.20
2022-12-15T12:58:42.291Z,14.30
2022-12-15T13:01:34.989Z,15.90
2022-12-15T13:04:36.115Z,15.20
2022-12-15T13:07:25.185Z,15.50
2022-12-15T13:10:09.939Z,16.20
2022-12-15T13:12:54.667Z,14.80
2022-12-15T13:15:31.749Z,14.80
2022-12-15T13:18:11.296Z,16.40
2022-12-15T13:20:42.158Z,15.10
2022-12-15T13:23:22.238Z,15.40
2022-12-15T13:25:56.630Z,16.20
2022-12-15T13:28:30.617Z,15.00
2022-12-15T13:31:23.009Z,15.10
2022-12-15T13:33:51.683Z,15.20
2022-12-15T13:36:54.438Z,16.00
2022-12-15T13:39:23.164Z,15.30
2022-12-15T13:42:31.393Z,16.20
2022-12-15T13:44:51.791Z,14.50
2022-12-15T13:47:31.323Z,14.00
2022-12-15T13:50:29.777Z,16.70
2022-12-15T13:53:19.959Z,15.00
2022-12-15T13:56:06.995Z,16.10
2022-12-15T13:58:44.651Z,14.50
2022-12-15T14:01:32.751Z,16.30
2022-12-15T14:04:12.684Z,15.60
2022-12-15T14:07:00.297Z,14.10
2022-12-15T14:09:37.169Z,13.90
2022-12-15T14:12:12.526Z,16.40
2022-12-15T14:14:49.278Z,15.10
2022-12-15T14:17:20.342Z,14.20
2022-12-15T14:19:51.441Z,14.90
2022-12-15T14:22:29.005Z,14.80
2022-12-15T14:25:21.373Z,14.60
2022-12-15T14:27:51.231Z,14.80
2022-12-15T14:30:32.980Z,16.00
2022-12-15T14:36:20.577Z,14.00
2022-12-15T14:38:57.517Z,14.50
2022-12-15T14:41:35.466Z,14.60
2022-12-15T14:44:36.822Z,14.50
2022-12-15T14:47:35.686Z,14.50
2022-12-15T14:50:09.943Z,15.30
2022-12-15T14:52:43.684Z,13.10
2022-12-15T14:55:31.052Z,13.50
2022-12-15T14:58:00.101Z,14.10
2022-12-15T15:00:36.924Z,13.90
2022-12-15T15:03:40.018Z,14.30
2022-12-15T15:06:13.708Z,14.40
2022-12-15T15:08:52.768Z,13.10
2022-12-15T15:11:29.439Z,13.80
2022-12-15T15:14:05.402Z,13.30
2022-12-15T15:16:34.108Z,12.90
2022-12-15T15:19:04.616Z,13.20
2022-12-15T15:21:37.494Z,13.40
2022-12-15T15:24:11.079Z,12.30
2022-12-15T15:26:43.431Z,13.40
2022-12-15T15:29:49.109Z,13.60
2022-12-15T15:32:21.444Z,13.10
2022-12-15T15:34:50.858Z,13.80
2022-12-15T15:37:24.280Z,14.80
2022-12-15T15:39:55.530Z,12.40
2022-12-15T15:42:27.884Z,14.10
2022-12-15T15:45:00.679Z,13.90
2022-12-15T15:47:28.935Z,13.90
2022-12-15T15:50:00.116Z,13.50
2022-12-15T15:52:29.918Z,14.50
2022-12-15T15:54:59.551Z,12.70
2022-12-15T15:57:27.490Z,14.10
2022-12-15T15:59:55.675Z,14.80
2022-12-15T16:02:24.008Z,14.00
2022-12-15T16:04:52.103Z,11.90
2022-12-15T16:07:27.869Z,12.60
2022-12-15T16:09:57.079Z,12.50
2022-12-15T16:12:30.044Z,14.10
2022-12-15T16:14:57.937Z,12.60
2022-12-15T16:17:25.795Z,13.80
2022-12-15T16:19:53.859Z,15.20
2022-12-15T16:22:22.562Z,13.00
2022-12-15T16:24:51.974Z,13.70
2022-12-15T16:27:20.428Z,14.40
2022-12-15T16:29:48.624Z,13.30
2022-12-15T16:32:16.542Z,14.00
2022-12-15T16:34:44.402Z,15.30
2022-12-15T16:37:27.368Z,14.00
2022-12-15T16:39:55.413Z,15.80
2022-12-15T16:42:23.360Z,15.50
2022-12-15T16:44:51.479Z,16.20
2022-12-15T16:47:19.747Z,17.00
2022-12-15T16:49:48.026Z,16.70
2022-12-15T16:52:21.217Z,18.30
2022-12-15T16:54:50.525Z,16.90
2022-12-15T16:57:18.694Z,16.40
2022-12-15T16:59:46.864Z,19.20
2022-12-15T17:02:29.843Z,17.50
2022-12-15T17:04:58.552Z,17.50
2022-12-15T17:07:28.286Z,16.50
2022-12-15T17:09:56.970Z,16.40
2022-12-15T17:12:25.144Z,16.00
2022-12-15T17:14:53.013Z,18.10
2022-12-15T17:17:21.433Z,17.20
2022-12-15T17:20:32.638Z,18.30
2022-12-15T17:22:39.380Z,17.50
2022-12-15T17:25:17.349Z,18.50
2022-12-15T17:27:47.996Z,16.20
2022-12-15T17:30:16.887Z,17.50
2022-12-15T17:32:45.871Z,17.10
2022-12-15T17:35:15.887Z,16.60
2022-12-15T17:37:45.583Z,17.00
2022-12-15T17:40:24.200Z,18.70
2022-12-15T17:42:52.389Z,18.80
2022-12-15T17:45:24.334Z,19.20
2022-12-15T17:47:53.506Z,21.20
2022-12-15T17:50:21.406Z,18.00
2022-12-15T17:52:49.693Z,18.90
2022-12-15T17:55:29.086Z,21.10
2022-12-15T17:58:00.376Z,21.00
2022-12-15T18:00:33.048Z,22.80
2022-12-15T18:03:03.346Z,21.10
2022-12-15T18:05:31.743Z,19.60
2022-12-15T18:08:07.368Z,20.70
2022-12-15T18:10:43.643Z,21.30
2022-12-15T18:13:26.843Z,21.20
2022-12-15T18:15:56.883Z,21.40
2022-12-15T18:18:26.427Z,20.30
2022-12-15T18:21:00.588Z,18.90
2022-12-15T18:23:32.443Z,20.30
2022-12-15T18:26:03.207Z,20.40
2022-12-15T18:28:35.236Z,20.30
2022-12-15T18:31:05.150Z,22.00
2022-12-15T18:33:33.909Z,22.10
2022-12-15T18:36:02.854Z,21.60
2022-12-15T18:38:31.072Z,20.80
2022-12-15T18:41:01.768Z,22.60
2022-12-15T18:43:33.670Z,21.70
2022-12-15T18:46:02.658Z,21.40
2022-12-15T18:48:35.212Z,21.70
2022-12-15T18:51:16.846Z,22.10
2022-12-15T18:53:48.608Z,23.50
2022-12-15T18:56:21.727Z,23.20
2022-12-15T18:58:49.851Z,21.00
2022-12-15T19:01:17.811Z,22.20
2022-12-15T19:03:45.988Z,21.30
2022-12-15T19:06:35.363Z,22.50
2022-12-15T19:09:20.437Z,23.50
2022-12-15T19:14:43.078Z,21.70
2022-12-15T19:17:36.847Z,24.50
2022-12-15T19:20:42.012Z,22.10
2022-12-15T19:23:11.925Z,22.00
2022-12-15T19:25:41.438Z,22.50
2022-12-15T19:28:23.376Z,22.00
2022-12-15T19:30:55.259Z,20.50
2022-12-15T19:33:23.233Z,23.20
2022-12-15T19:35:51.844Z,23.80
2022-12-15T19:38:28.208Z,22.70
2022-12-15T19:40:59.446Z,21.80
2022-12-15T19:43:27.945Z,23.60
2022-12-15T19:45:55.976Z,22.30
2022-12-15T19:48:24.498Z,22.70
2022-12-15T19:50:54.671Z,24.80
2022-12-15T19:53:29.969Z,23.50
2022-12-15T19:56:01.618Z,24.80
2022-12-15T19:58:35.541Z,22.60
2022-12-15T20:01:12.545Z,24.70
2022-12-15T20:03:48.593Z,23.70
2022-12-15T20:06:29.943Z,24.30
2022-12-15T20:08:59.654Z,23.90
2022-12-15T20:11:33.136Z,25.80
2022-12-15T20:14:03.262Z,25.20
2022-12-15T20:16:31.517Z,27.60
2022-12-15T20:19:00.651Z,25.00
2022-12-15T20:21:35.541Z,25.40
2022-12-15T20:24:18.855Z,24.70
2022-12-15T20:26:47.109Z,23.50
2022-12-15T20:29:25.549Z,26.70
2022-12-15T20:31:54.465Z,25.30
2022-12-15T20:34:23.577Z,26.60
2022-12-15T20:36:52.173Z,24.50
2022-12-15T20:39:29.516Z,24.90
2022-12-15T20:41:58.028Z,23.60
2022-12-15T20:44:26.115Z,24.40
2022-12-15T20:46:55.207Z,24.60
2022-12-15T20:49:24.355Z,23.70
2022-12-15T20:51:52.578Z,24.40
2022-12-15T20:54:22.626Z,25.40
2022-12-15T20:56:51.049Z,24.50
2022-12-15T20:59:19.151Z,25.10
2022-12-15T21:01:47.426Z,26.40
2022-12-15T21:04:22.683Z,24.50
2022-12-15T21:06:54.654Z,23.40
2022-12-15T21:09:24.206Z,22.30
2022-12-15T21:11:54.529Z,25.30
2022-12-15T21:14:24.848Z,24.70
2022-12-15T21:16:53.442Z,24.00
2022-12-15T21:19:22.638Z,22.80
2022-12-15T21:21:55.302Z,24.10
2022-12-15T21:24:27.393Z,23.00
2022-12-15T21:26:56.413Z,24.50
2022-12-15T21:29:28.327Z,25.20
2022-12-15T21:31:56.441Z,26.70
2022-12-15T21:34:24.424Z,26.00
2022-12-15T21:36:54.677Z,27.60
2022-12-15T21:39:34.180Z,26.80
2022-12-15T21:42:16.748Z,29.60
2022-12-15T21:44:45.652Z,29.60
2022-12-15T21:47:52.664Z,28.90
2022-12-15T21:50:23.601Z,26.00
2022-12-15T21:52:51.881Z,26.40
2022-12-15T21:55:26.279Z,26.90
2022-12-15T21:57:55.394Z,30.00
2022-12-15T22:00:25.479Z,28.50
2022-12-15T22:02:53.959Z,28.40
2022-12-15T22:05:30.770Z,26.60
2022-12-15T22:08:19.634Z,28.70
2022-12-15T22:10:51.934Z,26.90
2022-12-15T22:13:39.236Z,27.10
2022-12-15T22:16:09.193Z,29.00
2022-12-15T22:18:37.416Z,28.60
2022-12-15T22:21:07.782Z,26.90
2022-12-15T22:23:36.119Z,28.10
2022-12-15T22:26:04.782Z,27.10
2022-12-15T22:28:35.002Z,29.30
2022-12-15T22:31:04.455Z,29.10
2022-12-15T22:33:32.605Z,28.50
2022-12-15T22:36:01.104Z,31.70
2022-12-15T22:38:30.215Z,26.80
2022-12-15T22:40:59.283Z,29.90
2022-12-15T22:43:38.527Z,27.80
2022-12-15T22:46:10.608Z,27.90
2022-12-15T22:48:42.742Z,28.90
2022-12-15T22:51:15.177Z,28.80
2022-12-15T22:53:43.496Z,26.00
2022-12-15T22:56:35.709Z,26.50
2022-12-15T22:59:10.810Z,26.30
2022-12-15T23:01:39.436Z,27.70
2022-12-15T23:04:07.688Z,29.80
2022-12-15T23:06:36.628Z,29.20
2022-12-15T23:09:05.297Z,26.70
2022-12-15T23:11:41.574Z,28.50
2022-12-15T23:14:16.418Z,27.40
2022-12-15T23:16:46.819Z,26.60
2022-12-15T23:19:24.112Z,30.40
2022-12-15T23:21:52.613Z,26.70
2022-12-15T23:24:20.544Z,26.90
2022-12-15T23:26:48.747Z,27.30
2022-12-15T23:29:16.923Z,27.00
2022-12-15T23:31:45.246Z,27.10
2022-12-15T23:34:13.869Z,26.80
2022-12-15T23:36:41.951Z,27.30
2022-12-15T23:39:09.807Z,28.00
2022-12-15T23:41:37.787Z,28.70
2022-12-15T23:44:05.849Z,31.20
2022-12-15T23:46:34.103Z,29.60
2022-12-15T23:49:02.332Z,28.30
2022-12-15T23:51:30.488Z,30.30
2022-12-15T23:53:58.404Z,30.10
2022-12-15T23:56:26.349Z,31.60
2022-12-15T23:58:58.132Z,29.70
